<?xml version="1.0" encoding="UTF-8" standalone="no" ?>
<gpx xmlns="http://www.topografix.com/GPX/1/1" xmlns:xsi="http://www.w3.org/2001/XMLSchema-instance" xsi:schemaLocation="http://www.topografix.com/GPX/1/1 http://www.topografix.com/GPX/1/1/gpx.xsd" version="1.1" creator="VisuGPX - https://www.visugpx.com">
  <metadata>
    <name>2020 Bretagne </name>
  </metadata>
  <trk>
    <name><![CDATA[20-08-07PM]]></name>
    <trkseg>
      <trkpt lat="48.36706" lon="-3.74655">
        <ele>187.59</ele>
        <time>2020-08-07T11:54:22Z</time>
      </trkpt>
      <trkpt lat="48.36701" lon="-3.74659">
        <ele>188.56</ele>
        <time>2020-08-07T11:54:28Z</time>
      </trkpt>
      <trkpt lat="48.36699" lon="-3.74656">
        <ele>185.19</ele>
        <time>2020-08-07T11:54:39Z</time>
      </trkpt>
      <trkpt lat="48.36699" lon="-3.74656">
        <ele>184.71</ele>
        <time>2020-08-07T11:54:40Z</time>
      </trkpt>
      <trkpt lat="48.36701" lon="-3.74657">
        <ele>177.5</ele>
        <time>2020-08-07T11:54:42Z</time>
      </trkpt>
      <trkpt lat="48.36702" lon="-3.74658">
        <ele>185.19</ele>
        <time>2020-08-07T11:54:43Z</time>
      </trkpt>
      <trkpt lat="48.36702" lon="-3.74659">
        <ele>168.85</ele>
        <time>2020-08-07T11:54:45Z</time>
      </trkpt>
      <trkpt lat="48.36702" lon="-3.7466">
        <ele>185.19</ele>
        <time>2020-08-07T11:54:46Z</time>
      </trkpt>
      <trkpt lat="48.36702" lon="-3.7466">
        <ele>181.83</ele>
        <time>2020-08-07T11:54:47Z</time>
      </trkpt>
      <trkpt lat="48.36702" lon="-3.74661">
        <ele>185.19</ele>
        <time>2020-08-07T11:54:49Z</time>
      </trkpt>
      <trkpt lat="48.36702" lon="-3.74661">
        <ele>180.87</ele>
        <time>2020-08-07T11:54:50Z</time>
      </trkpt>
      <trkpt lat="48.36708" lon="-3.74659">
        <ele>181.83</ele>
        <time>2020-08-07T11:54:58Z</time>
      </trkpt>
      <trkpt lat="48.36714" lon="-3.74653">
        <ele>182.31</ele>
        <time>2020-08-07T11:55:12Z</time>
      </trkpt>
      <trkpt lat="48.36719" lon="-3.7465">
        <ele>181.83</ele>
        <time>2020-08-07T11:55:21Z</time>
      </trkpt>
      <trkpt lat="48.36735" lon="-3.7465">
        <ele>179.42</ele>
        <time>2020-08-07T11:55:36Z</time>
      </trkpt>
      <trkpt lat="48.36745" lon="-3.74655">
        <ele>177.02</ele>
        <time>2020-08-07T11:55:49Z</time>
      </trkpt>
      <trkpt lat="48.36754" lon="-3.7466">
        <ele>175.58</ele>
        <time>2020-08-07T11:56:02Z</time>
      </trkpt>
      <trkpt lat="48.36754" lon="-3.74664">
        <ele>174.14</ele>
        <time>2020-08-07T11:56:17Z</time>
      </trkpt>
      <trkpt lat="48.36756" lon="-3.74663">
        <ele>174.14</ele>
        <time>2020-08-07T11:56:22Z</time>
      </trkpt>
      <trkpt lat="48.36759" lon="-3.74655">
        <ele>174.14</ele>
        <time>2020-08-07T11:56:28Z</time>
      </trkpt>
      <trkpt lat="48.36769" lon="-3.74646">
        <ele>174.14</ele>
        <time>2020-08-07T11:56:41Z</time>
      </trkpt>
      <trkpt lat="48.36767" lon="-3.74642">
        <ele>174.14</ele>
        <time>2020-08-07T11:56:53Z</time>
      </trkpt>
      <trkpt lat="48.36767" lon="-3.74641">
        <ele>174.14</ele>
        <time>2020-08-07T11:56:56Z</time>
      </trkpt>
      <trkpt lat="48.36769" lon="-3.74645">
        <ele>174.62</ele>
        <time>2020-08-07T11:57:06Z</time>
      </trkpt>
      <trkpt lat="48.36769" lon="-3.74654">
        <ele>173.66</ele>
        <time>2020-08-07T11:57:16Z</time>
      </trkpt>
      <trkpt lat="48.36772" lon="-3.74666">
        <ele>171.73</ele>
        <time>2020-08-07T11:57:28Z</time>
      </trkpt>
      <trkpt lat="48.36777" lon="-3.74683">
        <ele>170.77</ele>
        <time>2020-08-07T11:57:40Z</time>
      </trkpt>
      <trkpt lat="48.3678" lon="-3.74695">
        <ele>171.25</ele>
        <time>2020-08-07T11:57:51Z</time>
      </trkpt>
      <trkpt lat="48.36785" lon="-3.74698">
        <ele>170.77</ele>
        <time>2020-08-07T11:58:05Z</time>
      </trkpt>
      <trkpt lat="48.36789" lon="-3.747">
        <ele>168.85</ele>
        <time>2020-08-07T11:58:10Z</time>
      </trkpt>
      <trkpt lat="48.36799" lon="-3.74713">
        <ele>168.85</ele>
        <time>2020-08-07T11:58:23Z</time>
      </trkpt>
      <trkpt lat="48.36801" lon="-3.74716">
        <ele>168.85</ele>
        <time>2020-08-07T11:58:26Z</time>
      </trkpt>
      <trkpt lat="48.36809" lon="-3.74743">
        <ele>169.33</ele>
        <time>2020-08-07T11:58:39Z</time>
      </trkpt>
      <trkpt lat="48.36814" lon="-3.74769">
        <ele>171.25</ele>
        <time>2020-08-07T11:58:55Z</time>
      </trkpt>
      <trkpt lat="48.36814" lon="-3.74783">
        <ele>171.73</ele>
        <time>2020-08-07T11:59:07Z</time>
      </trkpt>
      <trkpt lat="48.36817" lon="-3.74787">
        <ele>171.25</ele>
        <time>2020-08-07T11:59:12Z</time>
      </trkpt>
      <trkpt lat="48.36821" lon="-3.74809">
        <ele>171.73</ele>
        <time>2020-08-07T11:59:25Z</time>
      </trkpt>
      <trkpt lat="48.36825" lon="-3.74819">
        <ele>172.21</ele>
        <time>2020-08-07T11:59:33Z</time>
      </trkpt>
      <trkpt lat="48.36826" lon="-3.7482">
        <ele>172.21</ele>
        <time>2020-08-07T11:59:36Z</time>
      </trkpt>
      <trkpt lat="48.36832" lon="-3.74819">
        <ele>171.25</ele>
        <time>2020-08-07T11:59:43Z</time>
      </trkpt>
      <trkpt lat="48.3684" lon="-3.74825">
        <ele>171.73</ele>
        <time>2020-08-07T11:59:52Z</time>
      </trkpt>
      <trkpt lat="48.36843" lon="-3.74826">
        <ele>171.73</ele>
        <time>2020-08-07T12:00:03Z</time>
      </trkpt>
      <trkpt lat="48.36844" lon="-3.74825">
        <ele>171.25</ele>
        <time>2020-08-07T12:00:24Z</time>
      </trkpt>
      <trkpt lat="48.36844" lon="-3.74825">
        <ele>171.73</ele>
        <time>2020-08-07T12:00:42Z</time>
      </trkpt>
      <trkpt lat="48.36843" lon="-3.74825">
        <ele>171.73</ele>
        <time>2020-08-07T12:01:03Z</time>
      </trkpt>
      <trkpt lat="48.36842" lon="-3.74824">
        <ele>171.25</ele>
        <time>2020-08-07T12:01:31Z</time>
      </trkpt>
      <trkpt lat="48.36841" lon="-3.74825">
        <ele>171.25</ele>
        <time>2020-08-07T12:01:49Z</time>
      </trkpt>
      <trkpt lat="48.36844" lon="-3.74824">
        <ele>171.73</ele>
        <time>2020-08-07T12:02:00Z</time>
      </trkpt>
      <trkpt lat="48.36848" lon="-3.74827">
        <ele>170.29</ele>
        <time>2020-08-07T12:02:11Z</time>
      </trkpt>
      <trkpt lat="48.36855" lon="-3.74832">
        <ele>172.21</ele>
        <time>2020-08-07T12:02:23Z</time>
      </trkpt>
      <trkpt lat="48.36857" lon="-3.74829">
        <ele>173.17</ele>
        <time>2020-08-07T12:02:33Z</time>
      </trkpt>
      <trkpt lat="48.36859" lon="-3.74826">
        <ele>176.06</ele>
        <time>2020-08-07T12:02:46Z</time>
      </trkpt>
      <trkpt lat="48.36862" lon="-3.74823">
        <ele>177.02</ele>
        <time>2020-08-07T12:02:58Z</time>
      </trkpt>
      <trkpt lat="48.36866" lon="-3.74822">
        <ele>178.94</ele>
        <time>2020-08-07T12:03:09Z</time>
      </trkpt>
      <trkpt lat="48.36872" lon="-3.74829">
        <ele>181.35</ele>
        <time>2020-08-07T12:03:21Z</time>
      </trkpt>
      <trkpt lat="48.36873" lon="-3.74839">
        <ele>181.35</ele>
        <time>2020-08-07T12:03:32Z</time>
      </trkpt>
      <trkpt lat="48.36871" lon="-3.74843">
        <ele>181.35</ele>
        <time>2020-08-07T12:03:45Z</time>
      </trkpt>
      <trkpt lat="48.36872" lon="-3.74846">
        <ele>181.35</ele>
        <time>2020-08-07T12:04:07Z</time>
      </trkpt>
      <trkpt lat="48.36874" lon="-3.74848">
        <ele>182.31</ele>
        <time>2020-08-07T12:04:20Z</time>
      </trkpt>
      <trkpt lat="48.36874" lon="-3.7485">
        <ele>182.31</ele>
        <time>2020-08-07T12:04:51Z</time>
      </trkpt>
      <trkpt lat="48.36874" lon="-3.7485">
        <ele>182.79</ele>
        <time>2020-08-07T12:04:59Z</time>
      </trkpt>
      <trkpt lat="48.36875" lon="-3.74848">
        <ele>184.23</ele>
        <time>2020-08-07T12:05:12Z</time>
      </trkpt>
      <trkpt lat="48.36876" lon="-3.74844">
        <ele>183.27</ele>
        <time>2020-08-07T12:05:27Z</time>
      </trkpt>
      <trkpt lat="48.36876" lon="-3.74841">
        <ele>183.27</ele>
        <time>2020-08-07T12:05:48Z</time>
      </trkpt>
      <trkpt lat="48.36876" lon="-3.74838">
        <ele>182.79</ele>
        <time>2020-08-07T12:06:05Z</time>
      </trkpt>
      <trkpt lat="48.36879" lon="-3.74835">
        <ele>184.23</ele>
        <time>2020-08-07T12:06:21Z</time>
      </trkpt>
      <trkpt lat="48.3688" lon="-3.74829">
        <ele>183.75</ele>
        <time>2020-08-07T12:06:34Z</time>
      </trkpt>
      <trkpt lat="48.36883" lon="-3.74817">
        <ele>183.27</ele>
        <time>2020-08-07T12:06:46Z</time>
      </trkpt>
      <trkpt lat="48.36896" lon="-3.74805">
        <ele>182.79</ele>
        <time>2020-08-07T12:06:53Z</time>
      </trkpt>
      <trkpt lat="48.36892" lon="-3.74813">
        <ele>184.71</ele>
        <time>2020-08-07T12:07:06Z</time>
      </trkpt>
      <trkpt lat="48.36889" lon="-3.74819">
        <ele>184.23</ele>
        <time>2020-08-07T12:07:21Z</time>
      </trkpt>
      <trkpt lat="48.36886" lon="-3.74823">
        <ele>183.75</ele>
        <time>2020-08-07T12:07:34Z</time>
      </trkpt>
      <trkpt lat="48.36884" lon="-3.74825">
        <ele>183.27</ele>
        <time>2020-08-07T12:07:47Z</time>
      </trkpt>
      <trkpt lat="48.36883" lon="-3.74824">
        <ele>183.75</ele>
        <time>2020-08-07T12:08:00Z</time>
      </trkpt>
      <trkpt lat="48.3688" lon="-3.74827">
        <ele>182.79</ele>
        <time>2020-08-07T12:08:18Z</time>
      </trkpt>
      <trkpt lat="48.36879" lon="-3.74828">
        <ele>182.79</ele>
        <time>2020-08-07T12:08:39Z</time>
      </trkpt>
      <trkpt lat="48.36879" lon="-3.7483">
        <ele>182.31</ele>
        <time>2020-08-07T12:08:58Z</time>
      </trkpt>
      <trkpt lat="48.36875" lon="-3.7484">
        <ele>182.31</ele>
        <time>2020-08-07T12:09:10Z</time>
      </trkpt>
      <trkpt lat="48.36873" lon="-3.74848">
        <ele>181.35</ele>
        <time>2020-08-07T12:09:23Z</time>
      </trkpt>
      <trkpt lat="48.36873" lon="-3.74852">
        <ele>180.87</ele>
        <time>2020-08-07T12:09:41Z</time>
      </trkpt>
      <trkpt lat="48.36873" lon="-3.74857">
        <ele>178.94</ele>
        <time>2020-08-07T12:09:52Z</time>
      </trkpt>
      <trkpt lat="48.36871" lon="-3.74861">
        <ele>177.5</ele>
        <time>2020-08-07T12:10:06Z</time>
      </trkpt>
      <trkpt lat="48.36868" lon="-3.74867">
        <ele>175.58</ele>
        <time>2020-08-07T12:10:21Z</time>
      </trkpt>
      <trkpt lat="48.36864" lon="-3.74875">
        <ele>173.17</ele>
        <time>2020-08-07T12:10:37Z</time>
      </trkpt>
      <trkpt lat="48.36858" lon="-3.7488">
        <ele>172.21</ele>
        <time>2020-08-07T12:10:50Z</time>
      </trkpt>
      <trkpt lat="48.36847" lon="-3.74886">
        <ele>173.17</ele>
        <time>2020-08-07T12:11:02Z</time>
      </trkpt>
      <trkpt lat="48.36841" lon="-3.74881">
        <ele>173.17</ele>
        <time>2020-08-07T12:11:08Z</time>
      </trkpt>
      <trkpt lat="48.36837" lon="-3.74871">
        <ele>173.17</ele>
        <time>2020-08-07T12:11:18Z</time>
      </trkpt>
      <trkpt lat="48.36836" lon="-3.74868">
        <ele>173.17</ele>
        <time>2020-08-07T12:11:20Z</time>
      </trkpt>
      <trkpt lat="48.36834" lon="-3.7486">
        <ele>173.17</ele>
        <time>2020-08-07T12:11:25Z</time>
      </trkpt>
      <trkpt lat="48.36831" lon="-3.74851">
        <ele>172.69</ele>
        <time>2020-08-07T12:11:32Z</time>
      </trkpt>
      <trkpt lat="48.3683" lon="-3.74849">
        <ele>172.69</ele>
        <time>2020-08-07T12:11:34Z</time>
      </trkpt>
      <trkpt lat="48.36827" lon="-3.74837">
        <ele>173.66</ele>
        <time>2020-08-07T12:11:44Z</time>
      </trkpt>
      <trkpt lat="48.36826" lon="-3.74829">
        <ele>172.69</ele>
        <time>2020-08-07T12:11:50Z</time>
      </trkpt>
      <trkpt lat="48.36825" lon="-3.74827">
        <ele>173.17</ele>
        <time>2020-08-07T12:11:52Z</time>
      </trkpt>
      <trkpt lat="48.36824" lon="-3.74823">
        <ele>173.17</ele>
        <time>2020-08-07T12:11:56Z</time>
      </trkpt>
      <trkpt lat="48.3682" lon="-3.74806">
        <ele>172.21</ele>
        <time>2020-08-07T12:12:11Z</time>
      </trkpt>
      <trkpt lat="48.36816" lon="-3.74792">
        <ele>172.69</ele>
        <time>2020-08-07T12:12:25Z</time>
      </trkpt>
      <trkpt lat="48.36814" lon="-3.74787">
        <ele>172.21</ele>
        <time>2020-08-07T12:12:28Z</time>
      </trkpt>
      <trkpt lat="48.36807" lon="-3.74779">
        <ele>172.21</ele>
        <time>2020-08-07T12:12:38Z</time>
      </trkpt>
      <trkpt lat="48.36805" lon="-3.74773">
        <ele>171.73</ele>
        <time>2020-08-07T12:12:42Z</time>
      </trkpt>
      <trkpt lat="48.36802" lon="-3.74762">
        <ele>170.77</ele>
        <time>2020-08-07T12:12:50Z</time>
      </trkpt>
      <trkpt lat="48.36801" lon="-3.74758">
        <ele>170.29</ele>
        <time>2020-08-07T12:12:53Z</time>
      </trkpt>
      <trkpt lat="48.36798" lon="-3.74737">
        <ele>170.29</ele>
        <time>2020-08-07T12:13:10Z</time>
      </trkpt>
      <trkpt lat="48.36799" lon="-3.74729">
        <ele>169.81</ele>
        <time>2020-08-07T12:13:16Z</time>
      </trkpt>
      <trkpt lat="48.36798" lon="-3.74717">
        <ele>168.85</ele>
        <time>2020-08-07T12:13:27Z</time>
      </trkpt>
      <trkpt lat="48.36798" lon="-3.747">
        <ele>168.37</ele>
        <time>2020-08-07T12:13:40Z</time>
      </trkpt>
      <trkpt lat="48.36796" lon="-3.7469">
        <ele>168.37</ele>
        <time>2020-08-07T12:13:49Z</time>
      </trkpt>
      <trkpt lat="48.36797" lon="-3.74677">
        <ele>168.37</ele>
        <time>2020-08-07T12:13:57Z</time>
      </trkpt>
      <trkpt lat="48.36797" lon="-3.74655">
        <ele>167.89</ele>
        <time>2020-08-07T12:14:06Z</time>
      </trkpt>
      <trkpt lat="48.36798" lon="-3.74637">
        <ele>168.37</ele>
        <time>2020-08-07T12:14:20Z</time>
      </trkpt>
      <trkpt lat="48.36795" lon="-3.7463">
        <ele>167.89</ele>
        <time>2020-08-07T12:14:25Z</time>
      </trkpt>
      <trkpt lat="48.36789" lon="-3.74619">
        <ele>168.37</ele>
        <time>2020-08-07T12:14:33Z</time>
      </trkpt>
      <trkpt lat="48.36785" lon="-3.74604">
        <ele>167.89</ele>
        <time>2020-08-07T12:14:47Z</time>
      </trkpt>
      <trkpt lat="48.36781" lon="-3.74592">
        <ele>167.41</ele>
        <time>2020-08-07T12:15:00Z</time>
      </trkpt>
      <trkpt lat="48.36774" lon="-3.7458">
        <ele>166.45</ele>
        <time>2020-08-07T12:15:14Z</time>
      </trkpt>
      <trkpt lat="48.3677" lon="-3.74569">
        <ele>165.96</ele>
        <time>2020-08-07T12:15:27Z</time>
      </trkpt>
      <trkpt lat="48.36771" lon="-3.74548">
        <ele>166.45</ele>
        <time>2020-08-07T12:15:39Z</time>
      </trkpt>
      <trkpt lat="48.3677" lon="-3.74539">
        <ele>166.45</ele>
        <time>2020-08-07T12:15:51Z</time>
      </trkpt>
      <trkpt lat="48.36766" lon="-3.74536">
        <ele>167.41</ele>
        <time>2020-08-07T12:16:03Z</time>
      </trkpt>
      <trkpt lat="48.36755" lon="-3.7453">
        <ele>169.33</ele>
        <time>2020-08-07T12:16:15Z</time>
      </trkpt>
      <trkpt lat="48.36751" lon="-3.74524">
        <ele>170.29</ele>
        <time>2020-08-07T12:16:29Z</time>
      </trkpt>
      <trkpt lat="48.36749" lon="-3.74522">
        <ele>170.29</ele>
        <time>2020-08-07T12:16:43Z</time>
      </trkpt>
      <trkpt lat="48.36748" lon="-3.74522">
        <ele>170.77</ele>
        <time>2020-08-07T12:17:07Z</time>
      </trkpt>
      <trkpt lat="48.36742" lon="-3.74519">
        <ele>171.73</ele>
        <time>2020-08-07T12:17:31Z</time>
      </trkpt>
      <trkpt lat="48.36736" lon="-3.74508">
        <ele>171.25</ele>
        <time>2020-08-07T12:17:44Z</time>
      </trkpt>
      <trkpt lat="48.36734" lon="-3.74504">
        <ele>171.25</ele>
        <time>2020-08-07T12:17:57Z</time>
      </trkpt>
      <trkpt lat="48.36732" lon="-3.74503">
        <ele>171.25</ele>
        <time>2020-08-07T12:18:11Z</time>
      </trkpt>
      <trkpt lat="48.36731" lon="-3.74502">
        <ele>172.69</ele>
        <time>2020-08-07T12:18:31Z</time>
      </trkpt>
      <trkpt lat="48.36726" lon="-3.74503">
        <ele>174.62</ele>
        <time>2020-08-07T12:18:43Z</time>
      </trkpt>
      <trkpt lat="48.36723" lon="-3.74507">
        <ele>175.58</ele>
        <time>2020-08-07T12:18:54Z</time>
      </trkpt>
      <trkpt lat="48.3672" lon="-3.7452">
        <ele>178.46</ele>
        <time>2020-08-07T12:19:08Z</time>
      </trkpt>
      <trkpt lat="48.3672" lon="-3.74527">
        <ele>179.42</ele>
        <time>2020-08-07T12:19:21Z</time>
      </trkpt>
      <trkpt lat="48.36721" lon="-3.74529">
        <ele>179.42</ele>
        <time>2020-08-07T12:19:47Z</time>
      </trkpt>
      <trkpt lat="48.36721" lon="-3.74528">
        <ele>179.9</ele>
        <time>2020-08-07T12:19:57Z</time>
      </trkpt>
      <trkpt lat="48.3672" lon="-3.74529">
        <ele>179.42</ele>
        <time>2020-08-07T12:20:15Z</time>
      </trkpt>
      <trkpt lat="48.3672" lon="-3.7453">
        <ele>180.38</ele>
        <time>2020-08-07T12:20:27Z</time>
      </trkpt>
      <trkpt lat="48.36724" lon="-3.74535">
        <ele>179.9</ele>
        <time>2020-08-07T12:20:38Z</time>
      </trkpt>
      <trkpt lat="48.36726" lon="-3.74539">
        <ele>179.9</ele>
        <time>2020-08-07T12:20:52Z</time>
      </trkpt>
      <trkpt lat="48.36727" lon="-3.7454">
        <ele>179.9</ele>
        <time>2020-08-07T12:21:23Z</time>
      </trkpt>
      <trkpt lat="48.36726" lon="-3.74541">
        <ele>180.38</ele>
        <time>2020-08-07T12:21:44Z</time>
      </trkpt>
      <trkpt lat="48.36721" lon="-3.74532">
        <ele>179.42</ele>
        <time>2020-08-07T12:21:57Z</time>
      </trkpt>
      <trkpt lat="48.36716" lon="-3.74521">
        <ele>177.5</ele>
        <time>2020-08-07T12:22:09Z</time>
      </trkpt>
      <trkpt lat="48.36717" lon="-3.7451">
        <ele>175.1</ele>
        <time>2020-08-07T12:22:21Z</time>
      </trkpt>
      <trkpt lat="48.36718" lon="-3.74508">
        <ele>174.14</ele>
        <time>2020-08-07T12:22:24Z</time>
      </trkpt>
      <trkpt lat="48.36725" lon="-3.74506">
        <ele>171.73</ele>
        <time>2020-08-07T12:22:37Z</time>
      </trkpt>
      <trkpt lat="48.36733" lon="-3.74514">
        <ele>172.21</ele>
        <time>2020-08-07T12:22:50Z</time>
      </trkpt>
      <trkpt lat="48.36734" lon="-3.74518">
        <ele>173.17</ele>
        <time>2020-08-07T12:22:55Z</time>
      </trkpt>
      <trkpt lat="48.36732" lon="-3.74522">
        <ele>174.62</ele>
        <time>2020-08-07T12:23:07Z</time>
      </trkpt>
      <trkpt lat="48.36732" lon="-3.74523">
        <ele>174.14</ele>
        <time>2020-08-07T12:23:24Z</time>
      </trkpt>
      <trkpt lat="48.36733" lon="-3.74527">
        <ele>174.62</ele>
        <time>2020-08-07T12:23:52Z</time>
      </trkpt>
      <trkpt lat="48.36731" lon="-3.74528">
        <ele>174.14</ele>
        <time>2020-08-07T12:24:27Z</time>
      </trkpt>
      <trkpt lat="48.36729" lon="-3.74528">
        <ele>174.14</ele>
        <time>2020-08-07T12:24:53Z</time>
      </trkpt>
      <trkpt lat="48.36732" lon="-3.74527">
        <ele>174.62</ele>
        <time>2020-08-07T12:25:23Z</time>
      </trkpt>
      <trkpt lat="48.36731" lon="-3.74526">
        <ele>174.62</ele>
        <time>2020-08-07T12:25:51Z</time>
      </trkpt>
      <trkpt lat="48.3673" lon="-3.74523">
        <ele>174.14</ele>
        <time>2020-08-07T12:26:04Z</time>
      </trkpt>
      <trkpt lat="48.36732" lon="-3.74515">
        <ele>172.21</ele>
        <time>2020-08-07T12:26:15Z</time>
      </trkpt>
      <trkpt lat="48.36733" lon="-3.74513">
        <ele>172.21</ele>
        <time>2020-08-07T12:26:26Z</time>
      </trkpt>
      <trkpt lat="48.36739" lon="-3.74515">
        <ele>171.25</ele>
        <time>2020-08-07T12:26:37Z</time>
      </trkpt>
      <trkpt lat="48.36745" lon="-3.74516">
        <ele>168.85</ele>
        <time>2020-08-07T12:26:48Z</time>
      </trkpt>
      <trkpt lat="48.36749" lon="-3.74516">
        <ele>166.93</ele>
        <time>2020-08-07T12:27:00Z</time>
      </trkpt>
      <trkpt lat="48.36752" lon="-3.7451">
        <ele>165.48</ele>
        <time>2020-08-07T12:27:14Z</time>
      </trkpt>
      <trkpt lat="48.36753" lon="-3.74504">
        <ele>165</ele>
        <time>2020-08-07T12:27:26Z</time>
      </trkpt>
      <trkpt lat="48.3675" lon="-3.74495">
        <ele>164.04</ele>
        <time>2020-08-07T12:27:40Z</time>
      </trkpt>
      <trkpt lat="48.36749" lon="-3.74489">
        <ele>164.04</ele>
        <time>2020-08-07T12:27:46Z</time>
      </trkpt>
      <trkpt lat="48.36743" lon="-3.74477">
        <ele>163.08</ele>
        <time>2020-08-07T12:27:57Z</time>
      </trkpt>
      <trkpt lat="48.36739" lon="-3.74469">
        <ele>162.6</ele>
        <time>2020-08-07T12:28:07Z</time>
      </trkpt>
      <trkpt lat="48.36736" lon="-3.74464">
        <ele>162.12</ele>
        <time>2020-08-07T12:28:12Z</time>
      </trkpt>
      <trkpt lat="48.36735" lon="-3.7446">
        <ele>162.12</ele>
        <time>2020-08-07T12:28:15Z</time>
      </trkpt>
      <trkpt lat="48.36733" lon="-3.74454">
        <ele>161.64</ele>
        <time>2020-08-07T12:28:19Z</time>
      </trkpt>
      <trkpt lat="48.36726" lon="-3.74445">
        <ele>161.64</ele>
        <time>2020-08-07T12:28:31Z</time>
      </trkpt>
      <trkpt lat="48.36725" lon="-3.74445">
        <ele>161.64</ele>
        <time>2020-08-07T12:28:32Z</time>
      </trkpt>
      <trkpt lat="48.36723" lon="-3.74439">
        <ele>161.64</ele>
        <time>2020-08-07T12:28:36Z</time>
      </trkpt>
      <trkpt lat="48.36724" lon="-3.74433">
        <ele>161.16</ele>
        <time>2020-08-07T12:28:47Z</time>
      </trkpt>
      <trkpt lat="48.3672" lon="-3.74432">
        <ele>160.68</ele>
        <time>2020-08-07T12:28:52Z</time>
      </trkpt>
      <trkpt lat="48.36711" lon="-3.74425">
        <ele>161.16</ele>
        <time>2020-08-07T12:29:06Z</time>
      </trkpt>
      <trkpt lat="48.36706" lon="-3.74424">
        <ele>160.68</ele>
        <time>2020-08-07T12:29:16Z</time>
      </trkpt>
      <trkpt lat="48.36701" lon="-3.74433">
        <ele>161.64</ele>
        <time>2020-08-07T12:29:28Z</time>
      </trkpt>
      <trkpt lat="48.36699" lon="-3.74438">
        <ele>161.64</ele>
        <time>2020-08-07T12:29:41Z</time>
      </trkpt>
      <trkpt lat="48.36691" lon="-3.7444">
        <ele>160.2</ele>
        <time>2020-08-07T12:29:54Z</time>
      </trkpt>
      <trkpt lat="48.3669" lon="-3.74438">
        <ele>160.68</ele>
        <time>2020-08-07T12:30:06Z</time>
      </trkpt>
      <trkpt lat="48.36688" lon="-3.74437">
        <ele>160.68</ele>
        <time>2020-08-07T12:30:19Z</time>
      </trkpt>
      <trkpt lat="48.36686" lon="-3.74437">
        <ele>159.72</ele>
        <time>2020-08-07T12:30:40Z</time>
      </trkpt>
      <trkpt lat="48.36684" lon="-3.74438">
        <ele>157.79</ele>
        <time>2020-08-07T12:30:57Z</time>
      </trkpt>
      <trkpt lat="48.36676" lon="-3.7443">
        <ele>156.83</ele>
        <time>2020-08-07T12:31:12Z</time>
      </trkpt>
      <trkpt lat="48.36676" lon="-3.74427">
        <ele>156.83</ele>
        <time>2020-08-07T12:31:15Z</time>
      </trkpt>
      <trkpt lat="48.36674" lon="-3.74424">
        <ele>156.83</ele>
        <time>2020-08-07T12:31:18Z</time>
      </trkpt>
      <trkpt lat="48.3667" lon="-3.74421">
        <ele>156.35</ele>
        <time>2020-08-07T12:31:23Z</time>
      </trkpt>
      <trkpt lat="48.36667" lon="-3.74422">
        <ele>156.35</ele>
        <time>2020-08-07T12:31:36Z</time>
      </trkpt>
      <trkpt lat="48.36666" lon="-3.74419">
        <ele>157.31</ele>
        <time>2020-08-07T12:31:50Z</time>
      </trkpt>
      <trkpt lat="48.36666" lon="-3.74416">
        <ele>157.79</ele>
        <time>2020-08-07T12:32:05Z</time>
      </trkpt>
      <trkpt lat="48.36665" lon="-3.74414">
        <ele>158.27</ele>
        <time>2020-08-07T12:32:17Z</time>
      </trkpt>
      <trkpt lat="48.36664" lon="-3.74414">
        <ele>159.24</ele>
        <time>2020-08-07T12:32:29Z</time>
      </trkpt>
      <trkpt lat="48.36663" lon="-3.74413">
        <ele>160.2</ele>
        <time>2020-08-07T12:32:40Z</time>
      </trkpt>
      <trkpt lat="48.36662" lon="-3.7441">
        <ele>161.16</ele>
        <time>2020-08-07T12:33:03Z</time>
      </trkpt>
      <trkpt lat="48.36662" lon="-3.74409">
        <ele>160.68</ele>
        <time>2020-08-07T12:33:28Z</time>
      </trkpt>
      <trkpt lat="48.36662" lon="-3.74409">
        <ele>160.68</ele>
        <time>2020-08-07T12:33:44Z</time>
      </trkpt>
      <trkpt lat="48.36662" lon="-3.74408">
        <ele>160.68</ele>
        <time>2020-08-07T12:34:11Z</time>
      </trkpt>
      <trkpt lat="48.36662" lon="-3.74407">
        <ele>161.16</ele>
        <time>2020-08-07T12:34:38Z</time>
      </trkpt>
      <trkpt lat="48.36661" lon="-3.74406">
        <ele>161.16</ele>
        <time>2020-08-07T12:34:59Z</time>
      </trkpt>
      <trkpt lat="48.3666" lon="-3.74406">
        <ele>161.16</ele>
        <time>2020-08-07T12:35:25Z</time>
      </trkpt>
      <trkpt lat="48.36661" lon="-3.74406">
        <ele>161.64</ele>
        <time>2020-08-07T12:35:52Z</time>
      </trkpt>
      <trkpt lat="48.3666" lon="-3.74405">
        <ele>161.16</ele>
        <time>2020-08-07T12:36:17Z</time>
      </trkpt>
      <trkpt lat="48.3666" lon="-3.74405">
        <ele>161.16</ele>
        <time>2020-08-07T12:36:40Z</time>
      </trkpt>
      <trkpt lat="48.3666" lon="-3.74404">
        <ele>161.16</ele>
        <time>2020-08-07T12:37:02Z</time>
      </trkpt>
      <trkpt lat="48.3666" lon="-3.74404">
        <ele>161.16</ele>
        <time>2020-08-07T12:37:21Z</time>
      </trkpt>
      <trkpt lat="48.3666" lon="-3.74404">
        <ele>160.68</ele>
        <time>2020-08-07T12:37:36Z</time>
      </trkpt>
      <trkpt lat="48.36658" lon="-3.74402">
        <ele>162.12</ele>
        <time>2020-08-07T12:37:45Z</time>
      </trkpt>
      <trkpt lat="48.36659" lon="-3.74401">
        <ele>161.64</ele>
        <time>2020-08-07T12:37:49Z</time>
      </trkpt>
      <trkpt lat="48.36662" lon="-3.74399">
        <ele>163.08</ele>
        <time>2020-08-07T12:38:01Z</time>
      </trkpt>
      <trkpt lat="48.36663" lon="-3.74399">
        <ele>163.08</ele>
        <time>2020-08-07T12:38:15Z</time>
      </trkpt>
      <trkpt lat="48.36662" lon="-3.74401">
        <ele>162.6</ele>
        <time>2020-08-07T12:38:18Z</time>
      </trkpt>
      <trkpt lat="48.3666" lon="-3.74402">
        <ele>162.6</ele>
        <time>2020-08-07T12:38:31Z</time>
      </trkpt>
      <trkpt lat="48.3666" lon="-3.74401">
        <ele>162.6</ele>
        <time>2020-08-07T12:38:52Z</time>
      </trkpt>
      <trkpt lat="48.36661" lon="-3.74399">
        <ele>162.6</ele>
        <time>2020-08-07T12:39:22Z</time>
      </trkpt>
      <trkpt lat="48.3666" lon="-3.74399">
        <ele>162.12</ele>
        <time>2020-08-07T12:39:30Z</time>
      </trkpt>
      <trkpt lat="48.36659" lon="-3.74398">
        <ele>161.64</ele>
        <time>2020-08-07T12:39:46Z</time>
      </trkpt>
      <trkpt lat="48.3666" lon="-3.74398">
        <ele>162.6</ele>
        <time>2020-08-07T12:39:57Z</time>
      </trkpt>
      <trkpt lat="48.3666" lon="-3.74396">
        <ele>162.12</ele>
        <time>2020-08-07T12:40:21Z</time>
      </trkpt>
      <trkpt lat="48.3666" lon="-3.74394">
        <ele>162.6</ele>
        <time>2020-08-07T12:40:37Z</time>
      </trkpt>
      <trkpt lat="48.36664" lon="-3.74392">
        <ele>163.56</ele>
        <time>2020-08-07T12:40:49Z</time>
      </trkpt>
      <trkpt lat="48.36665" lon="-3.74392">
        <ele>163.08</ele>
        <time>2020-08-07T12:41:10Z</time>
      </trkpt>
      <trkpt lat="48.36664" lon="-3.74391">
        <ele>163.56</ele>
        <time>2020-08-07T12:41:25Z</time>
      </trkpt>
      <trkpt lat="48.36664" lon="-3.7439">
        <ele>163.08</ele>
        <time>2020-08-07T12:41:31Z</time>
      </trkpt>
      <trkpt lat="48.36666" lon="-3.74382">
        <ele>163.08</ele>
        <time>2020-08-07T12:41:42Z</time>
      </trkpt>
      <trkpt lat="48.36666" lon="-3.74377">
        <ele>163.08</ele>
        <time>2020-08-07T12:42:03Z</time>
      </trkpt>
      <trkpt lat="48.36665" lon="-3.74377">
        <ele>162.6</ele>
        <time>2020-08-07T12:42:15Z</time>
      </trkpt>
      <trkpt lat="48.36665" lon="-3.74377">
        <ele>161.64</ele>
        <time>2020-08-07T12:42:31Z</time>
      </trkpt>
      <trkpt lat="48.36661" lon="-3.74375">
        <ele>160.2</ele>
        <time>2020-08-07T12:42:43Z</time>
      </trkpt>
      <trkpt lat="48.36658" lon="-3.74372">
        <ele>160.2</ele>
        <time>2020-08-07T12:42:48Z</time>
      </trkpt>
      <trkpt lat="48.3665" lon="-3.74362">
        <ele>159.24</ele>
        <time>2020-08-07T12:43:02Z</time>
      </trkpt>
      <trkpt lat="48.36644" lon="-3.74361">
        <ele>158.27</ele>
        <time>2020-08-07T12:43:13Z</time>
      </trkpt>
      <trkpt lat="48.36641" lon="-3.74355">
        <ele>158.27</ele>
        <time>2020-08-07T12:43:25Z</time>
      </trkpt>
      <trkpt lat="48.36635" lon="-3.74348">
        <ele>157.79</ele>
        <time>2020-08-07T12:43:35Z</time>
      </trkpt>
      <trkpt lat="48.36622" lon="-3.74336">
        <ele>156.35</ele>
        <time>2020-08-07T12:43:49Z</time>
      </trkpt>
      <trkpt lat="48.36611" lon="-3.74332">
        <ele>154.43</ele>
        <time>2020-08-07T12:44:00Z</time>
      </trkpt>
      <trkpt lat="48.36606" lon="-3.74329">
        <ele>153.95</ele>
        <time>2020-08-07T12:44:10Z</time>
      </trkpt>
      <trkpt lat="48.36603" lon="-3.74319">
        <ele>153.47</ele>
        <time>2020-08-07T12:44:20Z</time>
      </trkpt>
      <trkpt lat="48.366" lon="-3.74314">
        <ele>152.99</ele>
        <time>2020-08-07T12:44:33Z</time>
      </trkpt>
      <trkpt lat="48.36591" lon="-3.74301">
        <ele>152.03</ele>
        <time>2020-08-07T12:44:45Z</time>
      </trkpt>
      <trkpt lat="48.36588" lon="-3.74298">
        <ele>152.03</ele>
        <time>2020-08-07T12:44:49Z</time>
      </trkpt>
      <trkpt lat="48.36578" lon="-3.74292">
        <ele>152.03</ele>
        <time>2020-08-07T12:44:59Z</time>
      </trkpt>
      <trkpt lat="48.36575" lon="-3.74288">
        <ele>151.54</ele>
        <time>2020-08-07T12:45:15Z</time>
      </trkpt>
      <trkpt lat="48.36575" lon="-3.74286">
        <ele>152.03</ele>
        <time>2020-08-07T12:45:16Z</time>
      </trkpt>
      <trkpt lat="48.36576" lon="-3.74277">
        <ele>152.51</ele>
        <time>2020-08-07T12:45:29Z</time>
      </trkpt>
      <trkpt lat="48.36576" lon="-3.74263">
        <ele>152.99</ele>
        <time>2020-08-07T12:45:41Z</time>
      </trkpt>
      <trkpt lat="48.36575" lon="-3.7425">
        <ele>153.95</ele>
        <time>2020-08-07T12:45:54Z</time>
      </trkpt>
      <trkpt lat="48.36576" lon="-3.74246">
        <ele>153.95</ele>
        <time>2020-08-07T12:46:06Z</time>
      </trkpt>
      <trkpt lat="48.36575" lon="-3.74236">
        <ele>154.91</ele>
        <time>2020-08-07T12:46:16Z</time>
      </trkpt>
      <trkpt lat="48.36574" lon="-3.74228">
        <ele>155.39</ele>
        <time>2020-08-07T12:46:32Z</time>
      </trkpt>
      <trkpt lat="48.36573" lon="-3.74219">
        <ele>156.35</ele>
        <time>2020-08-07T12:46:44Z</time>
      </trkpt>
      <trkpt lat="48.36574" lon="-3.74208">
        <ele>156.83</ele>
        <time>2020-08-07T12:46:58Z</time>
      </trkpt>
      <trkpt lat="48.36575" lon="-3.74198">
        <ele>157.79</ele>
        <time>2020-08-07T12:47:10Z</time>
      </trkpt>
      <trkpt lat="48.36575" lon="-3.74182">
        <ele>157.79</ele>
        <time>2020-08-07T12:47:21Z</time>
      </trkpt>
      <trkpt lat="48.36575" lon="-3.74166">
        <ele>158.75</ele>
        <time>2020-08-07T12:47:36Z</time>
      </trkpt>
      <trkpt lat="48.36577" lon="-3.74153">
        <ele>158.75</ele>
        <time>2020-08-07T12:47:50Z</time>
      </trkpt>
      <trkpt lat="48.36577" lon="-3.7414">
        <ele>159.24</ele>
        <time>2020-08-07T12:48:00Z</time>
      </trkpt>
      <trkpt lat="48.36577" lon="-3.74128">
        <ele>159.72</ele>
        <time>2020-08-07T12:48:13Z</time>
      </trkpt>
      <trkpt lat="48.36576" lon="-3.74108">
        <ele>160.2</ele>
        <time>2020-08-07T12:48:27Z</time>
      </trkpt>
      <trkpt lat="48.36581" lon="-3.741">
        <ele>160.2</ele>
        <time>2020-08-07T12:48:37Z</time>
      </trkpt>
      <trkpt lat="48.36578" lon="-3.74097">
        <ele>161.64</ele>
        <time>2020-08-07T12:48:52Z</time>
      </trkpt>
      <trkpt lat="48.36578" lon="-3.74085">
        <ele>161.64</ele>
        <time>2020-08-07T12:48:59Z</time>
      </trkpt>
      <trkpt lat="48.36579" lon="-3.7407">
        <ele>162.12</ele>
        <time>2020-08-07T12:49:11Z</time>
      </trkpt>
      <trkpt lat="48.36579" lon="-3.74069">
        <ele>161.64</ele>
        <time>2020-08-07T12:49:12Z</time>
      </trkpt>
      <trkpt lat="48.36581" lon="-3.74047">
        <ele>162.12</ele>
        <time>2020-08-07T12:49:24Z</time>
      </trkpt>
      <trkpt lat="48.36581" lon="-3.74032">
        <ele>161.64</ele>
        <time>2020-08-07T12:49:34Z</time>
      </trkpt>
      <trkpt lat="48.36583" lon="-3.74019">
        <ele>161.64</ele>
        <time>2020-08-07T12:49:44Z</time>
      </trkpt>
      <trkpt lat="48.3658" lon="-3.74007">
        <ele>160.68</ele>
        <time>2020-08-07T12:49:56Z</time>
      </trkpt>
      <trkpt lat="48.36581" lon="-3.73997">
        <ele>160.68</ele>
        <time>2020-08-07T12:50:06Z</time>
      </trkpt>
      <trkpt lat="48.3658" lon="-3.73987">
        <ele>159.72</ele>
        <time>2020-08-07T12:50:16Z</time>
      </trkpt>
      <trkpt lat="48.3658" lon="-3.73971">
        <ele>159.24</ele>
        <time>2020-08-07T12:50:30Z</time>
      </trkpt>
      <trkpt lat="48.36581" lon="-3.7397">
        <ele>159.72</ele>
        <time>2020-08-07T12:50:31Z</time>
      </trkpt>
      <trkpt lat="48.36578" lon="-3.73957">
        <ele>158.75</ele>
        <time>2020-08-07T12:50:44Z</time>
      </trkpt>
      <trkpt lat="48.36579" lon="-3.73941">
        <ele>157.31</ele>
        <time>2020-08-07T12:50:54Z</time>
      </trkpt>
      <trkpt lat="48.3658" lon="-3.73934">
        <ele>157.31</ele>
        <time>2020-08-07T12:51:01Z</time>
      </trkpt>
      <trkpt lat="48.36583" lon="-3.73911">
        <ele>156.83</ele>
        <time>2020-08-07T12:51:14Z</time>
      </trkpt>
      <trkpt lat="48.36593" lon="-3.73878">
        <ele>156.35</ele>
        <time>2020-08-07T12:51:26Z</time>
      </trkpt>
      <trkpt lat="48.36596" lon="-3.7386">
        <ele>156.35</ele>
        <time>2020-08-07T12:51:39Z</time>
      </trkpt>
      <trkpt lat="48.36595" lon="-3.7385">
        <ele>155.39</ele>
        <time>2020-08-07T12:51:51Z</time>
      </trkpt>
      <trkpt lat="48.36593" lon="-3.73842">
        <ele>154.91</ele>
        <time>2020-08-07T12:51:59Z</time>
      </trkpt>
      <trkpt lat="48.36592" lon="-3.73831">
        <ele>155.39</ele>
        <time>2020-08-07T12:52:10Z</time>
      </trkpt>
      <trkpt lat="48.3659" lon="-3.73809">
        <ele>154.43</ele>
        <time>2020-08-07T12:52:24Z</time>
      </trkpt>
      <trkpt lat="48.36587" lon="-3.73799">
        <ele>153.95</ele>
        <time>2020-08-07T12:52:31Z</time>
      </trkpt>
      <trkpt lat="48.36587" lon="-3.73795">
        <ele>153.95</ele>
        <time>2020-08-07T12:52:34Z</time>
      </trkpt>
      <trkpt lat="48.36583" lon="-3.73776">
        <ele>152.99</ele>
        <time>2020-08-07T12:52:48Z</time>
      </trkpt>
      <trkpt lat="48.36583" lon="-3.73766">
        <ele>152.99</ele>
        <time>2020-08-07T12:52:57Z</time>
      </trkpt>
      <trkpt lat="48.36582" lon="-3.73761">
        <ele>152.99</ele>
        <time>2020-08-07T12:53:00Z</time>
      </trkpt>
      <trkpt lat="48.36585" lon="-3.73746">
        <ele>152.51</ele>
        <time>2020-08-07T12:53:14Z</time>
      </trkpt>
      <trkpt lat="48.36586" lon="-3.73742">
        <ele>152.51</ele>
        <time>2020-08-07T12:53:47Z</time>
      </trkpt>
      <trkpt lat="48.36585" lon="-3.73739">
        <ele>152.51</ele>
        <time>2020-08-07T12:54:15Z</time>
      </trkpt>
      <trkpt lat="48.36585" lon="-3.73742">
        <ele>152.51</ele>
        <time>2020-08-07T12:54:49Z</time>
      </trkpt>
      <trkpt lat="48.36587" lon="-3.7374">
        <ele>152.03</ele>
        <time>2020-08-07T12:55:17Z</time>
      </trkpt>
      <trkpt lat="48.36588" lon="-3.7374">
        <ele>152.03</ele>
        <time>2020-08-07T12:55:44Z</time>
      </trkpt>
      <trkpt lat="48.36588" lon="-3.73738">
        <ele>151.06</ele>
        <time>2020-08-07T12:56:18Z</time>
      </trkpt>
      <trkpt lat="48.36588" lon="-3.73738">
        <ele>154.43</ele>
        <time>2020-08-07T12:56:23Z</time>
      </trkpt>
      <trkpt lat="48.36589" lon="-3.73738">
        <ele>148.66</ele>
        <time>2020-08-07T12:56:30Z</time>
      </trkpt>
      <trkpt lat="48.36589" lon="-3.73738">
        <ele>153.95</ele>
        <time>2020-08-07T12:56:31Z</time>
      </trkpt>
      <trkpt lat="48.36589" lon="-3.7374">
        <ele>152.03</ele>
        <time>2020-08-07T12:56:56Z</time>
      </trkpt>
      <trkpt lat="48.36588" lon="-3.73741">
        <ele>151.54</ele>
        <time>2020-08-07T12:57:19Z</time>
      </trkpt>
      <trkpt lat="48.36588" lon="-3.73742">
        <ele>152.03</ele>
        <time>2020-08-07T12:57:37Z</time>
      </trkpt>
      <trkpt lat="48.36589" lon="-3.73743">
        <ele>151.54</ele>
        <time>2020-08-07T12:58:00Z</time>
      </trkpt>
      <trkpt lat="48.36589" lon="-3.73744">
        <ele>152.03</ele>
        <time>2020-08-07T12:58:14Z</time>
      </trkpt>
      <trkpt lat="48.36593" lon="-3.73741">
        <ele>152.03</ele>
        <time>2020-08-07T12:58:26Z</time>
      </trkpt>
      <trkpt lat="48.36595" lon="-3.73734">
        <ele>151.54</ele>
        <time>2020-08-07T12:58:37Z</time>
      </trkpt>
      <trkpt lat="48.36596" lon="-3.73731">
        <ele>151.54</ele>
        <time>2020-08-07T12:58:43Z</time>
      </trkpt>
      <trkpt lat="48.36597" lon="-3.7372">
        <ele>151.54</ele>
        <time>2020-08-07T12:58:55Z</time>
      </trkpt>
      <trkpt lat="48.36604" lon="-3.73698">
        <ele>151.54</ele>
        <time>2020-08-07T12:59:08Z</time>
      </trkpt>
      <trkpt lat="48.36605" lon="-3.73682">
        <ele>152.03</ele>
        <time>2020-08-07T12:59:19Z</time>
      </trkpt>
      <trkpt lat="48.36608" lon="-3.73665">
        <ele>152.03</ele>
        <time>2020-08-07T12:59:30Z</time>
      </trkpt>
      <trkpt lat="48.36606" lon="-3.73644">
        <ele>152.99</ele>
        <time>2020-08-07T12:59:44Z</time>
      </trkpt>
      <trkpt lat="48.36607" lon="-3.7363">
        <ele>154.43</ele>
        <time>2020-08-07T12:59:58Z</time>
      </trkpt>
      <trkpt lat="48.36607" lon="-3.73627">
        <ele>154.43</ele>
        <time>2020-08-07T13:00:12Z</time>
      </trkpt>
      <trkpt lat="48.36606" lon="-3.73629">
        <ele>154.43</ele>
        <time>2020-08-07T13:00:23Z</time>
      </trkpt>
      <trkpt lat="48.36605" lon="-3.73628">
        <ele>153.95</ele>
        <time>2020-08-07T13:00:28Z</time>
      </trkpt>
      <trkpt lat="48.36602" lon="-3.73635">
        <ele>153.47</ele>
        <time>2020-08-07T13:00:40Z</time>
      </trkpt>
      <trkpt lat="48.36606" lon="-3.7364">
        <ele>152.51</ele>
        <time>2020-08-07T13:00:53Z</time>
      </trkpt>
      <trkpt lat="48.36606" lon="-3.73647">
        <ele>152.51</ele>
        <time>2020-08-07T13:00:59Z</time>
      </trkpt>
      <trkpt lat="48.36608" lon="-3.73661">
        <ele>152.51</ele>
        <time>2020-08-07T13:01:13Z</time>
      </trkpt>
      <trkpt lat="48.36607" lon="-3.73668">
        <ele>152.51</ele>
        <time>2020-08-07T13:01:25Z</time>
      </trkpt>
      <trkpt lat="48.36602" lon="-3.73676">
        <ele>152.51</ele>
        <time>2020-08-07T13:01:40Z</time>
      </trkpt>
      <trkpt lat="48.36599" lon="-3.73682">
        <ele>152.99</ele>
        <time>2020-08-07T13:01:44Z</time>
      </trkpt>
      <trkpt lat="48.36597" lon="-3.73699">
        <ele>152.51</ele>
        <time>2020-08-07T13:01:55Z</time>
      </trkpt>
      <trkpt lat="48.36595" lon="-3.7371">
        <ele>152.99</ele>
        <time>2020-08-07T13:02:07Z</time>
      </trkpt>
      <trkpt lat="48.3659" lon="-3.73717">
        <ele>153.47</ele>
        <time>2020-08-07T13:02:18Z</time>
      </trkpt>
      <trkpt lat="48.36593" lon="-3.73738">
        <ele>152.99</ele>
        <time>2020-08-07T13:02:32Z</time>
      </trkpt>
      <trkpt lat="48.36589" lon="-3.73739">
        <ele>152.51</ele>
        <time>2020-08-07T13:02:38Z</time>
      </trkpt>
      <trkpt lat="48.36583" lon="-3.73747">
        <ele>152.99</ele>
        <time>2020-08-07T13:02:49Z</time>
      </trkpt>
      <trkpt lat="48.36582" lon="-3.73748">
        <ele>153.47</ele>
        <time>2020-08-07T13:02:54Z</time>
      </trkpt>
      <trkpt lat="48.36579" lon="-3.73746">
        <ele>152.99</ele>
        <time>2020-08-07T13:03:04Z</time>
      </trkpt>
      <trkpt lat="48.36577" lon="-3.7374">
        <ele>152.99</ele>
        <time>2020-08-07T13:03:17Z</time>
      </trkpt>
      <trkpt lat="48.36571" lon="-3.73738">
        <ele>152.99</ele>
        <time>2020-08-07T13:03:36Z</time>
      </trkpt>
      <trkpt lat="48.36568" lon="-3.7374">
        <ele>152.99</ele>
        <time>2020-08-07T13:03:47Z</time>
      </trkpt>
      <trkpt lat="48.36567" lon="-3.73741">
        <ele>154.43</ele>
        <time>2020-08-07T13:04:01Z</time>
      </trkpt>
      <trkpt lat="48.36563" lon="-3.73747">
        <ele>156.35</ele>
        <time>2020-08-07T13:04:14Z</time>
      </trkpt>
      <trkpt lat="48.36563" lon="-3.73759">
        <ele>156.35</ele>
        <time>2020-08-07T13:04:26Z</time>
      </trkpt>
      <trkpt lat="48.36561" lon="-3.73777">
        <ele>156.35</ele>
        <time>2020-08-07T13:04:37Z</time>
      </trkpt>
      <trkpt lat="48.36554" lon="-3.73793">
        <ele>156.35</ele>
        <time>2020-08-07T13:04:48Z</time>
      </trkpt>
      <trkpt lat="48.36551" lon="-3.73811">
        <ele>156.83</ele>
        <time>2020-08-07T13:04:58Z</time>
      </trkpt>
      <trkpt lat="48.36549" lon="-3.73831">
        <ele>157.31</ele>
        <time>2020-08-07T13:05:08Z</time>
      </trkpt>
      <trkpt lat="48.36541" lon="-3.73849">
        <ele>157.79</ele>
        <time>2020-08-07T13:05:22Z</time>
      </trkpt>
      <trkpt lat="48.36542" lon="-3.73881">
        <ele>159.24</ele>
        <time>2020-08-07T13:05:36Z</time>
      </trkpt>
      <trkpt lat="48.36536" lon="-3.73897">
        <ele>159.72</ele>
        <time>2020-08-07T13:05:50Z</time>
      </trkpt>
      <trkpt lat="48.36526" lon="-3.73911">
        <ele>158.75</ele>
        <time>2020-08-07T13:06:06Z</time>
      </trkpt>
      <trkpt lat="48.3652" lon="-3.73935">
        <ele>158.75</ele>
        <time>2020-08-07T13:06:20Z</time>
      </trkpt>
      <trkpt lat="48.36521" lon="-3.73969">
        <ele>159.24</ele>
        <time>2020-08-07T13:06:37Z</time>
      </trkpt>
      <trkpt lat="48.36518" lon="-3.73981">
        <ele>159.24</ele>
        <time>2020-08-07T13:06:49Z</time>
      </trkpt>
      <trkpt lat="48.36517" lon="-3.73992">
        <ele>159.72</ele>
        <time>2020-08-07T13:06:59Z</time>
      </trkpt>
      <trkpt lat="48.36514" lon="-3.74002">
        <ele>159.72</ele>
        <time>2020-08-07T13:07:12Z</time>
      </trkpt>
      <trkpt lat="48.36515" lon="-3.74017">
        <ele>159.72</ele>
        <time>2020-08-07T13:07:25Z</time>
      </trkpt>
      <trkpt lat="48.36518" lon="-3.74033">
        <ele>160.68</ele>
        <time>2020-08-07T13:07:38Z</time>
      </trkpt>
      <trkpt lat="48.36515" lon="-3.74052">
        <ele>160.68</ele>
        <time>2020-08-07T13:07:49Z</time>
      </trkpt>
      <trkpt lat="48.36519" lon="-3.74075">
        <ele>160.68</ele>
        <time>2020-08-07T13:08:02Z</time>
      </trkpt>
      <trkpt lat="48.36518" lon="-3.74094">
        <ele>161.16</ele>
        <time>2020-08-07T13:08:14Z</time>
      </trkpt>
      <trkpt lat="48.36519" lon="-3.74102">
        <ele>161.64</ele>
        <time>2020-08-07T13:08:26Z</time>
      </trkpt>
      <trkpt lat="48.3652" lon="-3.74099">
        <ele>161.16</ele>
        <time>2020-08-07T13:08:41Z</time>
      </trkpt>
      <trkpt lat="48.36528" lon="-3.74113">
        <ele>161.64</ele>
        <time>2020-08-07T13:08:46Z</time>
      </trkpt>
      <trkpt lat="48.36527" lon="-3.74106">
        <ele>161.64</ele>
        <time>2020-08-07T13:08:59Z</time>
      </trkpt>
      <trkpt lat="48.36524" lon="-3.74102">
        <ele>161.64</ele>
        <time>2020-08-07T13:09:10Z</time>
      </trkpt>
      <trkpt lat="48.36524" lon="-3.74089">
        <ele>161.16</ele>
        <time>2020-08-07T13:09:23Z</time>
      </trkpt>
      <trkpt lat="48.36527" lon="-3.74084">
        <ele>160.68</ele>
        <time>2020-08-07T13:09:39Z</time>
      </trkpt>
      <trkpt lat="48.36528" lon="-3.74077">
        <ele>159.24</ele>
        <time>2020-08-07T13:09:53Z</time>
      </trkpt>
      <trkpt lat="48.36533" lon="-3.74076">
        <ele>159.24</ele>
        <time>2020-08-07T13:09:57Z</time>
      </trkpt>
      <trkpt lat="48.36548" lon="-3.74075">
        <ele>158.27</ele>
        <time>2020-08-07T13:10:11Z</time>
      </trkpt>
      <trkpt lat="48.36554" lon="-3.74076">
        <ele>157.31</ele>
        <time>2020-08-07T13:10:27Z</time>
      </trkpt>
      <trkpt lat="48.36558" lon="-3.74078">
        <ele>157.79</ele>
        <time>2020-08-07T13:10:40Z</time>
      </trkpt>
      <trkpt lat="48.36558" lon="-3.7408">
        <ele>157.79</ele>
        <time>2020-08-07T13:10:53Z</time>
      </trkpt>
      <trkpt lat="48.36558" lon="-3.74083">
        <ele>157.79</ele>
        <time>2020-08-07T13:11:07Z</time>
      </trkpt>
      <trkpt lat="48.36559" lon="-3.74082">
        <ele>157.31</ele>
        <time>2020-08-07T13:11:18Z</time>
      </trkpt>
      <trkpt lat="48.36559" lon="-3.74082">
        <ele>158.27</ele>
        <time>2020-08-07T13:11:28Z</time>
      </trkpt>
      <trkpt lat="48.36559" lon="-3.74082">
        <ele>157.79</ele>
        <time>2020-08-07T13:11:34Z</time>
      </trkpt>
      <trkpt lat="48.36558" lon="-3.74081">
        <ele>158.27</ele>
        <time>2020-08-07T13:11:46Z</time>
      </trkpt>
      <trkpt lat="48.36558" lon="-3.74082">
        <ele>157.79</ele>
        <time>2020-08-07T13:12:06Z</time>
      </trkpt>
      <trkpt lat="48.36559" lon="-3.74082">
        <ele>158.75</ele>
        <time>2020-08-07T13:12:28Z</time>
      </trkpt>
      <trkpt lat="48.3656" lon="-3.74083">
        <ele>158.27</ele>
        <time>2020-08-07T13:12:33Z</time>
      </trkpt>
      <trkpt lat="48.3656" lon="-3.74085">
        <ele>158.27</ele>
        <time>2020-08-07T13:12:45Z</time>
      </trkpt>
      <trkpt lat="48.36558" lon="-3.74097">
        <ele>158.75</ele>
        <time>2020-08-07T13:12:59Z</time>
      </trkpt>
      <trkpt lat="48.36558" lon="-3.74103">
        <ele>158.75</ele>
        <time>2020-08-07T13:13:10Z</time>
      </trkpt>
      <trkpt lat="48.36561" lon="-3.74112">
        <ele>158.75</ele>
        <time>2020-08-07T13:13:28Z</time>
      </trkpt>
      <trkpt lat="48.36562" lon="-3.74126">
        <ele>158.75</ele>
        <time>2020-08-07T13:13:42Z</time>
      </trkpt>
      <trkpt lat="48.36565" lon="-3.74129">
        <ele>160.68</ele>
        <time>2020-08-07T13:14:01Z</time>
      </trkpt>
      <trkpt lat="48.36566" lon="-3.7413">
        <ele>161.16</ele>
        <time>2020-08-07T13:14:04Z</time>
      </trkpt>
      <trkpt lat="48.3657" lon="-3.74134">
        <ele>164.04</ele>
        <time>2020-08-07T13:14:17Z</time>
      </trkpt>
      <trkpt lat="48.36571" lon="-3.74135">
        <ele>166.45</ele>
        <time>2020-08-07T13:14:29Z</time>
      </trkpt>
      <trkpt lat="48.36573" lon="-3.74145">
        <ele>167.41</ele>
        <time>2020-08-07T13:14:41Z</time>
      </trkpt>
      <trkpt lat="48.3657" lon="-3.7416">
        <ele>166.93</ele>
        <time>2020-08-07T13:14:52Z</time>
      </trkpt>
      <trkpt lat="48.36571" lon="-3.74171">
        <ele>166.45</ele>
        <time>2020-08-07T13:15:03Z</time>
      </trkpt>
      <trkpt lat="48.36572" lon="-3.74185">
        <ele>165</ele>
        <time>2020-08-07T13:15:14Z</time>
      </trkpt>
      <trkpt lat="48.36572" lon="-3.742">
        <ele>164.04</ele>
        <time>2020-08-07T13:15:24Z</time>
      </trkpt>
      <trkpt lat="48.36571" lon="-3.74216">
        <ele>163.56</ele>
        <time>2020-08-07T13:15:35Z</time>
      </trkpt>
      <trkpt lat="48.3657" lon="-3.74222">
        <ele>163.08</ele>
        <time>2020-08-07T13:15:38Z</time>
      </trkpt>
      <trkpt lat="48.36568" lon="-3.74244">
        <ele>162.12</ele>
        <time>2020-08-07T13:15:50Z</time>
      </trkpt>
      <trkpt lat="48.36568" lon="-3.74252">
        <ele>161.16</ele>
        <time>2020-08-07T13:15:57Z</time>
      </trkpt>
      <trkpt lat="48.36566" lon="-3.74271">
        <ele>161.16</ele>
        <time>2020-08-07T13:16:07Z</time>
      </trkpt>
      <trkpt lat="48.36567" lon="-3.7428">
        <ele>161.64</ele>
        <time>2020-08-07T13:16:13Z</time>
      </trkpt>
      <trkpt lat="48.36577" lon="-3.74294">
        <ele>162.12</ele>
        <time>2020-08-07T13:16:25Z</time>
      </trkpt>
      <trkpt lat="48.36583" lon="-3.74298">
        <ele>163.08</ele>
        <time>2020-08-07T13:16:33Z</time>
      </trkpt>
      <trkpt lat="48.3659" lon="-3.74313">
        <ele>164.52</ele>
        <time>2020-08-07T13:16:48Z</time>
      </trkpt>
      <trkpt lat="48.36597" lon="-3.74316">
        <ele>165.48</ele>
        <time>2020-08-07T13:16:58Z</time>
      </trkpt>
      <trkpt lat="48.36599" lon="-3.74317">
        <ele>165.96</ele>
        <time>2020-08-07T13:17:02Z</time>
      </trkpt>
      <trkpt lat="48.36605" lon="-3.74329">
        <ele>167.41</ele>
        <time>2020-08-07T13:17:14Z</time>
      </trkpt>
      <trkpt lat="48.36612" lon="-3.74334">
        <ele>167.89</ele>
        <time>2020-08-07T13:17:24Z</time>
      </trkpt>
      <trkpt lat="48.36619" lon="-3.74339">
        <ele>168.37</ele>
        <time>2020-08-07T13:17:33Z</time>
      </trkpt>
      <trkpt lat="48.36625" lon="-3.74341">
        <ele>168.85</ele>
        <time>2020-08-07T13:17:38Z</time>
      </trkpt>
      <trkpt lat="48.36636" lon="-3.74347">
        <ele>169.33</ele>
        <time>2020-08-07T13:17:51Z</time>
      </trkpt>
      <trkpt lat="48.3664" lon="-3.74352">
        <ele>169.81</ele>
        <time>2020-08-07T13:18:01Z</time>
      </trkpt>
      <trkpt lat="48.36646" lon="-3.74362">
        <ele>171.73</ele>
        <time>2020-08-07T13:18:13Z</time>
      </trkpt>
      <trkpt lat="48.36662" lon="-3.74383">
        <ele>173.66</ele>
        <time>2020-08-07T13:18:26Z</time>
      </trkpt>
      <trkpt lat="48.36666" lon="-3.74382">
        <ele>173.17</ele>
        <time>2020-08-07T13:18:40Z</time>
      </trkpt>
      <trkpt lat="48.36668" lon="-3.74384">
        <ele>172.69</ele>
        <time>2020-08-07T13:19:00Z</time>
      </trkpt>
      <trkpt lat="48.36671" lon="-3.7439">
        <ele>171.25</ele>
        <time>2020-08-07T13:19:08Z</time>
      </trkpt>
      <trkpt lat="48.36675" lon="-3.744">
        <ele>171.73</ele>
        <time>2020-08-07T13:19:21Z</time>
      </trkpt>
      <trkpt lat="48.36675" lon="-3.74413">
        <ele>172.69</ele>
        <time>2020-08-07T13:19:34Z</time>
      </trkpt>
      <trkpt lat="48.36677" lon="-3.74423">
        <ele>174.14</ele>
        <time>2020-08-07T13:19:44Z</time>
      </trkpt>
      <trkpt lat="48.36679" lon="-3.74424">
        <ele>175.1</ele>
        <time>2020-08-07T13:19:56Z</time>
      </trkpt>
      <trkpt lat="48.36674" lon="-3.74426">
        <ele>175.58</ele>
        <time>2020-08-07T13:20:09Z</time>
      </trkpt>
      <trkpt lat="48.36674" lon="-3.74426">
        <ele>175.58</ele>
        <time>2020-08-07T13:20:27Z</time>
      </trkpt>
      <trkpt lat="48.36674" lon="-3.74428">
        <ele>176.06</ele>
        <time>2020-08-07T13:20:47Z</time>
      </trkpt>
      <trkpt lat="48.36672" lon="-3.74432">
        <ele>176.54</ele>
        <time>2020-08-07T13:20:54Z</time>
      </trkpt>
      <trkpt lat="48.36671" lon="-3.74447">
        <ele>177.02</ele>
        <time>2020-08-07T13:21:06Z</time>
      </trkpt>
      <trkpt lat="48.36671" lon="-3.74452">
        <ele>176.54</ele>
        <time>2020-08-07T13:21:09Z</time>
      </trkpt>
      <trkpt lat="48.36672" lon="-3.74457">
        <ele>176.54</ele>
        <time>2020-08-07T13:21:12Z</time>
      </trkpt>
      <trkpt lat="48.36673" lon="-3.74469">
        <ele>177.02</ele>
        <time>2020-08-07T13:21:23Z</time>
      </trkpt>
      <trkpt lat="48.36672" lon="-3.74479">
        <ele>177.02</ele>
        <time>2020-08-07T13:21:40Z</time>
      </trkpt>
      <trkpt lat="48.36674" lon="-3.74494">
        <ele>177.5</ele>
        <time>2020-08-07T13:21:51Z</time>
      </trkpt>
      <trkpt lat="48.36674" lon="-3.7451">
        <ele>178.94</ele>
        <time>2020-08-07T13:22:03Z</time>
      </trkpt>
      <trkpt lat="48.36672" lon="-3.74515">
        <ele>179.42</ele>
        <time>2020-08-07T13:22:07Z</time>
      </trkpt>
      <trkpt lat="48.36669" lon="-3.74526">
        <ele>179.9</ele>
        <time>2020-08-07T13:22:19Z</time>
      </trkpt>
      <trkpt lat="48.36668" lon="-3.74533">
        <ele>180.87</ele>
        <time>2020-08-07T13:22:29Z</time>
      </trkpt>
      <trkpt lat="48.36666" lon="-3.7455">
        <ele>181.35</ele>
        <time>2020-08-07T13:22:45Z</time>
      </trkpt>
      <trkpt lat="48.36665" lon="-3.74566">
        <ele>182.79</ele>
        <time>2020-08-07T13:22:57Z</time>
      </trkpt>
      <trkpt lat="48.36668" lon="-3.74572">
        <ele>182.79</ele>
        <time>2020-08-07T13:23:10Z</time>
      </trkpt>
      <trkpt lat="48.36669" lon="-3.74581">
        <ele>183.75</ele>
        <time>2020-08-07T13:23:21Z</time>
      </trkpt>
      <trkpt lat="48.36667" lon="-3.74586">
        <ele>184.71</ele>
        <time>2020-08-07T13:23:33Z</time>
      </trkpt>
      <trkpt lat="48.36662" lon="-3.74588">
        <ele>185.19</ele>
        <time>2020-08-07T13:23:43Z</time>
      </trkpt>
      <trkpt lat="48.36652" lon="-3.7459">
        <ele>185.67</ele>
        <time>2020-08-07T13:23:55Z</time>
      </trkpt>
      <trkpt lat="48.36647" lon="-3.74592">
        <ele>184.71</ele>
        <time>2020-08-07T13:24:06Z</time>
      </trkpt>
      <trkpt lat="48.36642" lon="-3.74587">
        <ele>184.23</ele>
        <time>2020-08-07T13:24:18Z</time>
      </trkpt>
      <trkpt lat="48.36642" lon="-3.74581">
        <ele>182.31</ele>
        <time>2020-08-07T13:24:29Z</time>
      </trkpt>
      <trkpt lat="48.36635" lon="-3.7458">
        <ele>181.83</ele>
        <time>2020-08-07T13:24:39Z</time>
      </trkpt>
      <trkpt lat="48.36629" lon="-3.74579">
        <ele>182.79</ele>
        <time>2020-08-07T13:24:51Z</time>
      </trkpt>
      <trkpt lat="48.36625" lon="-3.74573">
        <ele>183.27</ele>
        <time>2020-08-07T13:25:11Z</time>
      </trkpt>
      <trkpt lat="48.36626" lon="-3.74571">
        <ele>182.79</ele>
        <time>2020-08-07T13:25:30Z</time>
      </trkpt>
      <trkpt lat="48.36625" lon="-3.74572">
        <ele>182.79</ele>
        <time>2020-08-07T13:25:46Z</time>
      </trkpt>
      <trkpt lat="48.36625" lon="-3.74571">
        <ele>184.23</ele>
        <time>2020-08-07T13:26:08Z</time>
      </trkpt>
      <trkpt lat="48.36625" lon="-3.74567">
        <ele>183.75</ele>
        <time>2020-08-07T13:26:20Z</time>
      </trkpt>
      <trkpt lat="48.36625" lon="-3.74568">
        <ele>184.71</ele>
        <time>2020-08-07T13:26:31Z</time>
      </trkpt>
      <trkpt lat="48.36621" lon="-3.74572">
        <ele>185.67</ele>
        <time>2020-08-07T13:26:43Z</time>
      </trkpt>
      <trkpt lat="48.36617" lon="-3.74579">
        <ele>185.67</ele>
        <time>2020-08-07T13:26:55Z</time>
      </trkpt>
      <trkpt lat="48.36613" lon="-3.74577">
        <ele>185.67</ele>
        <time>2020-08-07T13:27:14Z</time>
      </trkpt>
      <trkpt lat="48.36612" lon="-3.74575">
        <ele>185.67</ele>
        <time>2020-08-07T13:27:41Z</time>
      </trkpt>
      <trkpt lat="48.36608" lon="-3.74576">
        <ele>186.63</ele>
        <time>2020-08-07T13:28:06Z</time>
      </trkpt>
      <trkpt lat="48.36602" lon="-3.74578">
        <ele>187.59</ele>
        <time>2020-08-07T13:28:18Z</time>
      </trkpt>
      <trkpt lat="48.366" lon="-3.74589">
        <ele>187.11</ele>
        <time>2020-08-07T13:28:30Z</time>
      </trkpt>
      <trkpt lat="48.36595" lon="-3.74593">
        <ele>185.19</ele>
        <time>2020-08-07T13:28:46Z</time>
      </trkpt>
      <trkpt lat="48.36585" lon="-3.74605">
        <ele>185.67</ele>
        <time>2020-08-07T13:28:59Z</time>
      </trkpt>
      <trkpt lat="48.36579" lon="-3.74611">
        <ele>184.71</ele>
        <time>2020-08-07T13:29:16Z</time>
      </trkpt>
      <trkpt lat="48.36575" lon="-3.74623">
        <ele>185.67</ele>
        <time>2020-08-07T13:29:30Z</time>
      </trkpt>
      <trkpt lat="48.36565" lon="-3.74628">
        <ele>186.15</ele>
        <time>2020-08-07T13:29:42Z</time>
      </trkpt>
      <trkpt lat="48.36557" lon="-3.74633">
        <ele>185.19</ele>
        <time>2020-08-07T13:29:52Z</time>
      </trkpt>
      <trkpt lat="48.36557" lon="-3.74633">
        <ele>184.71</ele>
        <time>2020-08-07T13:30:11Z</time>
      </trkpt>
      <trkpt lat="48.36557" lon="-3.74633">
        <ele>185.19</ele>
        <time>2020-08-07T13:30:39Z</time>
      </trkpt>
      <trkpt lat="48.36561" lon="-3.74637">
        <ele>186.63</ele>
        <time>2020-08-07T13:30:57Z</time>
      </trkpt>
      <trkpt lat="48.36561" lon="-3.74634">
        <ele>185.19</ele>
        <time>2020-08-07T13:31:12Z</time>
      </trkpt>
      <trkpt lat="48.36557" lon="-3.74632">
        <ele>184.71</ele>
        <time>2020-08-07T13:31:26Z</time>
      </trkpt>
      <trkpt lat="48.36554" lon="-3.7463">
        <ele>183.75</ele>
        <time>2020-08-07T13:31:44Z</time>
      </trkpt>
      <trkpt lat="48.36553" lon="-3.7463">
        <ele>183.75</ele>
        <time>2020-08-07T13:31:50Z</time>
      </trkpt>
      <trkpt lat="48.36546" lon="-3.74629">
        <ele>184.23</ele>
        <time>2020-08-07T13:31:57Z</time>
      </trkpt>
      <trkpt lat="48.36544" lon="-3.74629">
        <ele>184.23</ele>
        <time>2020-08-07T13:32:00Z</time>
      </trkpt>
      <trkpt lat="48.36535" lon="-3.74634">
        <ele>184.71</ele>
        <time>2020-08-07T13:32:13Z</time>
      </trkpt>
      <trkpt lat="48.36535" lon="-3.74635">
        <ele>184.71</ele>
        <time>2020-08-07T13:32:26Z</time>
      </trkpt>
      <trkpt lat="48.36533" lon="-3.74636">
        <ele>184.71</ele>
        <time>2020-08-07T13:32:29Z</time>
      </trkpt>
      <trkpt lat="48.36525" lon="-3.74637">
        <ele>185.67</ele>
        <time>2020-08-07T13:32:41Z</time>
      </trkpt>
      <trkpt lat="48.36515" lon="-3.74636">
        <ele>185.67</ele>
        <time>2020-08-07T13:32:52Z</time>
      </trkpt>
      <trkpt lat="48.36515" lon="-3.74637">
        <ele>185.67</ele>
        <time>2020-08-07T13:33:05Z</time>
      </trkpt>
      <trkpt lat="48.36515" lon="-3.74636">
        <ele>186.15</ele>
        <time>2020-08-07T13:33:30Z</time>
      </trkpt>
      <trkpt lat="48.36515" lon="-3.74637">
        <ele>185.67</ele>
        <time>2020-08-07T13:34:02Z</time>
      </trkpt>
      <trkpt lat="48.36517" lon="-3.74639">
        <ele>186.15</ele>
        <time>2020-08-07T13:34:12Z</time>
      </trkpt>
      <trkpt lat="48.36518" lon="-3.74635">
        <ele>185.67</ele>
        <time>2020-08-07T13:34:23Z</time>
      </trkpt>
      <trkpt lat="48.36518" lon="-3.74632">
        <ele>186.15</ele>
        <time>2020-08-07T13:34:35Z</time>
      </trkpt>
      <trkpt lat="48.36518" lon="-3.74631">
        <ele>186.15</ele>
        <time>2020-08-07T13:34:36Z</time>
      </trkpt>
      <trkpt lat="48.36522" lon="-3.7463">
        <ele>185.19</ele>
        <time>2020-08-07T13:34:43Z</time>
      </trkpt>
      <trkpt lat="48.36529" lon="-3.74633">
        <ele>184.71</ele>
        <time>2020-08-07T13:34:52Z</time>
      </trkpt>
      <trkpt lat="48.36531" lon="-3.74632">
        <ele>184.23</ele>
        <time>2020-08-07T13:34:54Z</time>
      </trkpt>
      <trkpt lat="48.36543" lon="-3.74635">
        <ele>183.75</ele>
        <time>2020-08-07T13:35:07Z</time>
      </trkpt>
      <trkpt lat="48.36546" lon="-3.74635">
        <ele>183.75</ele>
        <time>2020-08-07T13:35:14Z</time>
      </trkpt>
      <trkpt lat="48.36552" lon="-3.74636">
        <ele>184.23</ele>
        <time>2020-08-07T13:35:28Z</time>
      </trkpt>
      <trkpt lat="48.36557" lon="-3.74633">
        <ele>184.71</ele>
        <time>2020-08-07T13:35:46Z</time>
      </trkpt>
      <trkpt lat="48.36563" lon="-3.74632">
        <ele>183.75</ele>
        <time>2020-08-07T13:35:57Z</time>
      </trkpt>
      <trkpt lat="48.3657" lon="-3.74629">
        <ele>182.79</ele>
        <time>2020-08-07T13:36:07Z</time>
      </trkpt>
      <trkpt lat="48.36576" lon="-3.7462">
        <ele>183.27</ele>
        <time>2020-08-07T13:36:21Z</time>
      </trkpt>
      <trkpt lat="48.3658" lon="-3.74609">
        <ele>183.75</ele>
        <time>2020-08-07T13:36:34Z</time>
      </trkpt>
      <trkpt lat="48.36585" lon="-3.746">
        <ele>184.71</ele>
        <time>2020-08-07T13:36:43Z</time>
      </trkpt>
      <trkpt lat="48.36596" lon="-3.74597">
        <ele>185.19</ele>
        <time>2020-08-07T13:36:54Z</time>
      </trkpt>
      <trkpt lat="48.36596" lon="-3.74598">
        <ele>185.19</ele>
        <time>2020-08-07T13:37:05Z</time>
      </trkpt>
      <trkpt lat="48.36602" lon="-3.74597">
        <ele>183.75</ele>
        <time>2020-08-07T13:37:25Z</time>
      </trkpt>
      <trkpt lat="48.36602" lon="-3.74596">
        <ele>183.75</ele>
        <time>2020-08-07T13:37:28Z</time>
      </trkpt>
      <trkpt lat="48.3661" lon="-3.74582">
        <ele>183.27</ele>
        <time>2020-08-07T13:37:40Z</time>
      </trkpt>
      <trkpt lat="48.36611" lon="-3.7458">
        <ele>183.75</ele>
        <time>2020-08-07T13:37:51Z</time>
      </trkpt>
      <trkpt lat="48.36613" lon="-3.74577">
        <ele>183.27</ele>
        <time>2020-08-07T13:38:07Z</time>
      </trkpt>
      <trkpt lat="48.36613" lon="-3.74574">
        <ele>182.31</ele>
        <time>2020-08-07T13:38:20Z</time>
      </trkpt>
      <trkpt lat="48.36615" lon="-3.74574">
        <ele>181.35</ele>
        <time>2020-08-07T13:38:33Z</time>
      </trkpt>
      <trkpt lat="48.3662" lon="-3.74573">
        <ele>179.42</ele>
        <time>2020-08-07T13:38:48Z</time>
      </trkpt>
      <trkpt lat="48.36626" lon="-3.74577">
        <ele>178.46</ele>
        <time>2020-08-07T13:39:01Z</time>
      </trkpt>
      <trkpt lat="48.36631" lon="-3.7458">
        <ele>180.38</ele>
        <time>2020-08-07T13:39:13Z</time>
      </trkpt>
      <trkpt lat="48.36635" lon="-3.74585">
        <ele>180.87</ele>
        <time>2020-08-07T13:39:24Z</time>
      </trkpt>
      <trkpt lat="48.3664" lon="-3.74591">
        <ele>181.35</ele>
        <time>2020-08-07T13:39:34Z</time>
      </trkpt>
      <trkpt lat="48.36648" lon="-3.74596">
        <ele>181.35</ele>
        <time>2020-08-07T13:39:46Z</time>
      </trkpt>
      <trkpt lat="48.36652" lon="-3.746">
        <ele>181.83</ele>
        <time>2020-08-07T13:39:57Z</time>
      </trkpt>
      <trkpt lat="48.36654" lon="-3.74602">
        <ele>184.71</ele>
        <time>2020-08-07T13:40:14Z</time>
      </trkpt>
      <trkpt lat="48.3666" lon="-3.74609">
        <ele>185.67</ele>
        <time>2020-08-07T13:40:26Z</time>
      </trkpt>
      <trkpt lat="48.3667" lon="-3.74616">
        <ele>188.56</ele>
        <time>2020-08-07T13:40:41Z</time>
      </trkpt>
      <trkpt lat="48.36679" lon="-3.74624">
        <ele>189.52</ele>
        <time>2020-08-07T13:40:54Z</time>
      </trkpt>
      <trkpt lat="48.36685" lon="-3.74632">
        <ele>190.96</ele>
        <time>2020-08-07T13:41:07Z</time>
      </trkpt>
      <trkpt lat="48.36692" lon="-3.74639">
        <ele>192.4</ele>
        <time>2020-08-07T13:41:18Z</time>
      </trkpt>
      <trkpt lat="48.36695" lon="-3.74644">
        <ele>193.84</ele>
        <time>2020-08-07T13:41:30Z</time>
      </trkpt>
      <trkpt lat="48.36698" lon="-3.74656">
        <ele>194.32</ele>
        <time>2020-08-07T13:41:43Z</time>
      </trkpt>
      <trkpt lat="48.36698" lon="-3.74658">
        <ele>194.32</ele>
        <time>2020-08-07T13:41:45Z</time>
      </trkpt>
      <trkpt lat="48.36692" lon="-3.74658">
        <ele>194.32</ele>
        <time>2020-08-07T13:41:57Z</time>
      </trkpt>
      <trkpt lat="48.36692" lon="-3.74658">
        <ele>193.84</ele>
        <time>2020-08-07T13:41:58Z</time>
      </trkpt>
      <trkpt lat="48.36687" lon="-3.74659">
        <ele>193.84</ele>
        <time>2020-08-07T13:42:09Z</time>
      </trkpt>
      <trkpt lat="48.36686" lon="-3.74662">
        <ele>193.84</ele>
        <time>2020-08-07T13:42:35Z</time>
      </trkpt>
      <trkpt lat="48.36686" lon="-3.74662">
        <ele>193.36</ele>
        <time>2020-08-07T13:42:42Z</time>
      </trkpt>
    </trkseg>
  </trk>
</gpx>